createdAt,value
2023-04-16T00:00:16.985Z,5.55
2023-04-16T00:02:44.298Z,4.65
2023-04-16T00:05:24.732Z,5.15
2023-04-16T00:07:52.838Z,6.07
2023-04-16T00:10:20.149Z,5.57
2023-04-16T00:12:53.636Z,5.40
2023-04-16T00:15:20.886Z,5.75
2023-04-16T00:17:54.752Z,5.30
2023-04-16T00:20:21.865Z,5.25
2023-04-16T00:22:48.965Z,6.05
2023-04-16T00:25:22.737Z,5.35
2023-04-16T00:27:49.963Z,5.50
2023-04-16T00:30:23.702Z,5.85
2023-04-16T00:32:51.277Z,5.55
2023-04-16T00:38:05.526Z,5.63
2023-04-16T00:40:39.660Z,5.30
2023-04-16T00:43:06.860Z,5.20
2023-04-16T00:45:34.032Z,5.30
2023-04-16T00:48:07.638Z,6.00
2023-04-16T00:50:34.809Z,6.03
2023-04-16T00:53:08.700Z,5.10
2023-04-16T00:55:35.917Z,5.88
2023-04-16T00:58:04.155Z,5.22
2023-04-16T01:00:37.658Z,5.20
2023-04-16T01:03:05.921Z,5.75
2023-04-16T01:05:39.988Z,5.50
2023-04-16T01:08:07.573Z,5.82
2023-04-16T01:10:34.665Z,5.30
2023-04-16T01:13:08.729Z,5.20
2023-04-16T01:15:38.233Z,5.40
2023-04-16T01:18:24.702Z,5.55
2023-04-16T01:20:51.947Z,4.93
2023-04-16T01:23:19.703Z,5.15
2023-04-16T01:25:53.740Z,4.85
2023-04-16T01:28:21.144Z,5.32
2023-04-16T01:30:54.789Z,5.10
2023-04-16T01:33:22.205Z,4.93
2023-04-16T01:36:03.129Z,5.20
2023-04-16T01:38:36.655Z,5.57
2023-04-16T01:41:10.685Z,5.45
2023-04-16T01:43:40.089Z,5.30
2023-04-16T01:46:20.720Z,5.70
2023-04-16T01:48:47.985Z,5.10
2023-04-16T01:51:18.421Z,5.18
2023-04-16T01:53:52.688Z,5.40
2023-04-16T01:56:19.854Z,5.30
2023-04-16T01:58:53.907Z,5.88
2023-04-16T02:01:21.277Z,4.90
2023-04-16T02:03:48.863Z,5.80
2023-04-16T02:06:26.681Z,5.35
2023-04-16T02:08:53.900Z,5.60
2023-04-16T02:11:27.801Z,5.28
2023-04-16T02:13:54.947Z,5.60
2023-04-16T02:16:22.144Z,5.63
2023-04-16T02:18:55.661Z,5.35
2023-04-16T02:21:22.901Z,4.97
2023-04-16T02:23:57.667Z,5.15
2023-04-16T02:26:26.165Z,5.38
2023-04-16T02:28:59.905Z,5.15
2023-04-16T02:31:28.424Z,5.55
2023-04-16T02:33:55.761Z,5.25
2023-04-16T02:36:29.773Z,5.80
2023-04-16T02:38:57.022Z,5.50
2023-04-16T02:41:30.906Z,5.28
2023-04-16T02:43:58.141Z,5.65
2023-04-16T02:46:25.549Z,5.70
2023-04-16T02:48:59.686Z,4.75
2023-04-16T02:51:27.743Z,5.22
2023-04-16T02:54:02.193Z,5.45
2023-04-16T02:56:29.425Z,5.63
2023-04-16T02:58:56.539Z,5.38
2023-04-16T03:01:30.725Z,5.30
2023-04-16T03:03:58.035Z,5.82
2023-04-16T03:06:32.984Z,5.22
2023-04-16T03:09:00.217Z,5.32
2023-04-16T03:11:27.307Z,5.47
2023-04-16T03:14:00.679Z,5.10
2023-04-16T03:16:27.940Z,5.20
2023-04-16T03:19:01.692Z,4.90
2023-04-16T03:21:28.946Z,5.57
2023-04-16T03:23:56.117Z,5.28
2023-04-16T03:26:29.702Z,5.00
2023-04-16T03:28:56.902Z,5.25
2023-04-16T03:31:33.747Z,4.72
2023-04-16T03:34:00.962Z,4.55
2023-04-16T03:36:41.806Z,5.35
2023-04-16T03:39:09.200Z,5.47
2023-04-16T03:44:18.458Z,5.18
2023-04-16T03:46:45.710Z,5.60
2023-04-16T03:49:25.722Z,5.65
2023-04-16T03:51:52.879Z,5.50
2023-04-16T03:54:22.420Z,5.25
2023-04-16T03:56:56.719Z,5.55
2023-04-16T03:59:23.867Z,5.35
2023-04-16T04:01:51.205Z,5.45
2023-04-16T04:04:24.723Z,5.20
2023-04-16T04:06:51.922Z,5.25
2023-04-16T04:09:25.790Z,5.28
2023-04-16T04:11:52.983Z,5.20
2023-04-16T04:14:26.861Z,5.13
2023-04-16T04:16:54.025Z,5.47
2023-04-16T04:19:21.273Z,5.78
2023-04-16T04:21:54.702Z,5.47
2023-04-16T04:24:21.880Z,6.25
2023-04-16T04:26:55.958Z,5.47
2023-04-16T04:29:23.176Z,6.47
2023-04-16T04:31:50.399Z,5.95
2023-04-16T04:34:23.699Z,5.65
2023-04-16T04:37:19.516Z,6.55
2023-04-16T04:39:52.743Z,6.68
2023-04-16T04:42:19.909Z,5.97
2023-04-16T04:44:47.301Z,6.65
2023-04-16T04:47:21.747Z,5.85
2023-04-16T04:49:48.957Z,5.32
2023-04-16T04:52:22.885Z,6.22
2023-04-16T04:54:50.136Z,7.15
2023-04-16T04:57:17.258Z,6.60
2023-04-16T04:59:50.778Z,6.32
2023-04-16T05:02:17.961Z,6.30
2023-04-16T05:04:51.802Z,7.00
2023-04-16T05:07:18.999Z,5.93
2023-04-16T05:09:46.141Z,6.63
2023-04-16T05:12:19.813Z,6.20
2023-04-16T05:14:47.078Z,7.15
2023-04-16T05:17:20.994Z,6.53
2023-04-16T05:19:48.196Z,6.35
2023-04-16T05:22:19.042Z,6.35
2023-04-16T05:24:52.748Z,6.60
2023-04-16T05:27:19.996Z,6.60
2023-04-16T05:29:53.836Z,6.53
2023-04-16T05:32:21.067Z,6.93
2023-04-16T05:34:48.160Z,6.47
2023-04-16T05:37:25.777Z,6.15
2023-04-16T05:39:52.941Z,6.63
2023-04-16T05:42:20.033Z,7.22
2023-04-16T05:44:53.813Z,5.97
2023-04-16T05:47:21.468Z,6.18
2023-04-16T05:49:54.725Z,6.13
2023-04-16T05:52:21.896Z,6.05
2023-04-16T05:54:49.123Z,6.00
2023-04-16T05:57:22.872Z,5.82
2023-04-16T05:59:49.964Z,5.88
2023-04-16T06:02:23.893Z,6.15
2023-04-16T06:04:51.121Z,6.20
2023-04-16T06:07:18.349Z,5.70
2023-04-16T06:09:52.837Z,6.60
2023-04-16T06:12:20.004Z,6.00
2023-04-16T06:14:47.070Z,5.88
2023-04-16T06:17:20.782Z,6.07
2023-04-16T06:19:48.055Z,5.75
2023-04-16T06:22:21.848Z,6.25
2023-04-16T06:24:49.005Z,5.57
2023-04-16T06:27:16.253Z,5.13
2023-04-16T06:29:49.873Z,5.70
2023-04-16T06:32:17.350Z,5.80
2023-04-16T06:34:44.577Z,5.22
2023-04-16T06:37:17.745Z,5.10
2023-04-16T06:39:51.676Z,5.80
2023-04-16T06:42:25.851Z,5.63
2023-04-16T06:44:53.052Z,5.88
2023-04-16T06:47:20.245Z,5.53
2023-04-16T06:49:53.869Z,5.32
2023-04-16T06:52:21.033Z,5.50
2023-04-16T06:54:48.775Z,6.13
2023-04-16T06:57:23.198Z,5.10
2023-04-16T06:59:50.509Z,4.97
2023-04-16T07:02:17.834Z,5.30
2023-04-16T07:04:51.851Z,5.70
2023-04-16T07:07:19.197Z,4.57
2023-04-16T07:09:46.324Z,5.03
2023-04-16T07:12:22.014Z,5.28
2023-04-16T07:14:49.961Z,5.57
2023-04-16T07:17:23.796Z,4.95
2023-04-16T07:19:52.354Z,4.47
2023-04-16T07:22:19.470Z,5.18
2023-04-16T07:24:52.789Z,5.57
2023-04-16T07:27:20.073Z,4.90
2023-04-16T07:29:47.182Z,4.90
2023-04-16T07:32:20.957Z,4.97
2023-04-16T07:34:48.229Z,4.75
2023-04-16T07:37:28.780Z,4.38
2023-04-16T07:39:57.614Z,4.60
2023-04-16T07:42:24.808Z,4.60
2023-04-16T07:44:58.826Z,5.07
2023-04-16T07:47:27.109Z,4.70
2023-04-16T07:50:00.793Z,4.75
2023-04-16T07:52:28.036Z,5.05
2023-04-16T07:54:55.215Z,5.40
2023-04-16T07:57:28.841Z,4.90
2023-04-16T07:59:56.134Z,4.45
2023-04-16T08:02:30.069Z,4.43
2023-04-16T08:04:57.457Z,4.50
2023-04-16T08:07:24.584Z,4.55
2023-04-16T08:09:58.771Z,4.35
2023-04-16T08:12:26.075Z,4.40
2023-04-16T08:14:59.857Z,4.85
2023-04-16T08:17:28.790Z,4.93
2023-04-16T08:19:56.213Z,4.57
2023-04-16T08:22:29.834Z,4.32
2023-04-16T08:24:57.078Z,4.50
2023-04-16T08:27:30.807Z,4.38
2023-04-16T08:29:58.001Z,3.97
2023-04-16T08:32:25.980Z,4.40
2023-04-16T08:34:59.768Z,4.03
2023-04-16T08:37:33.726Z,4.43
2023-04-16T08:40:08.950Z,4.43
2023-04-16T08:42:56.336Z,4.10
2023-04-16T08:45:30.761Z,4.68
2023-04-16T08:48:12.787Z,3.88
2023-04-16T08:50:41.619Z,4.15
2023-04-16T08:53:32.721Z,4.30
2023-04-16T08:56:17.669Z,4.00
2023-04-16T08:58:45.040Z,4.13
2023-04-16T09:01:27.916Z,3.92
2023-04-16T09:03:55.480Z,3.67
2023-04-16T09:06:29.859Z,4.13
2023-04-16T09:08:58.344Z,4.75
2023-04-16T09:11:26.369Z,4.45
2023-04-16T09:13:59.805Z,4.25
2023-04-16T09:16:30.725Z,3.88
2023-04-16T09:19:04.824Z,4.03
2023-04-16T09:21:32.183Z,4.85
2023-04-16T09:24:00.938Z,3.85
2023-04-16T09:26:34.879Z,3.88
2023-04-16T09:29:02.108Z,4.00
2023-04-16T09:31:35.783Z,4.10
2023-04-16T09:34:08.499Z,4.03
2023-04-16T09:36:42.781Z,4.40
2023-04-16T09:39:22.848Z,3.88
2023-04-16T09:41:56.792Z,3.80
2023-04-16T09:44:35.458Z,3.85
2023-04-16T09:50:07.782Z,4.28
2023-04-16T09:52:43.740Z,3.95
2023-04-16T09:55:19.301Z,3.75
2023-04-16T09:57:53.753Z,4.05
2023-04-16T10:00:21.087Z,4.20
2023-04-16T10:02:50.662Z,3.80
2023-04-16T10:05:26.883Z,3.85
2023-04-16T10:07:54.078Z,4.07
2023-04-16T10:10:27.806Z,3.45
2023-04-16T10:12:56.013Z,3.85
2023-04-16T10:15:29.837Z,3.95
2023-04-16T10:17:58.201Z,3.90
2023-04-16T10:20:25.657Z,3.75
2023-04-16T10:23:00.776Z,4.20
2023-04-16T10:25:28.821Z,3.90
2023-04-16T10:28:03.087Z,4.15
2023-04-16T10:30:30.892Z,4.05
2023-04-16T10:33:00.244Z,4.20
2023-04-16T10:35:33.802Z,4.57
2023-04-16T10:38:25.885Z,3.83
2023-04-16T10:41:13.008Z,4.13
2023-04-16T10:43:41.493Z,4.00
2023-04-16T10:46:25.032Z,3.85
2023-04-16T10:48:54.176Z,3.92
2023-04-16T10:51:33.021Z,4.45
2023-04-16T10:54:15.788Z,4.38
2023-04-16T10:56:52.041Z,4.47
2023-04-16T10:59:20.538Z,3.85
2023-04-16T11:01:49.041Z,4.60
2023-04-16T11:04:29.993Z,3.83
2023-04-16T11:07:07.337Z,4.22
2023-04-16T11:10:00.286Z,4.00
2023-04-16T11:12:33.843Z,3.60
2023-04-16T11:15:09.937Z,3.72
2023-04-16T11:17:40.162Z,3.45
2023-04-16T11:20:25.823Z,3.45
2023-04-16T11:22:53.829Z,3.78
2023-04-16T11:25:28.955Z,3.80
2023-04-16T11:27:57.971Z,4.13
2023-04-16T11:30:41.867Z,3.55
2023-04-16T11:33:09.929Z,3.83
2023-04-16T11:35:37.156Z,3.50
2023-04-16T11:38:12.885Z,4.10
2023-04-16T11:40:54.798Z,3.60
2023-04-16T11:43:22.039Z,3.72
2023-04-16T11:46:13.362Z,3.40
2023-04-16T11:48:51.570Z,3.20
2023-04-16T11:51:25.768Z,3.58
2023-04-16T11:53:54.274Z,3.42
2023-04-16T11:56:38.900Z,3.33
2023-04-16T11:59:13.439Z,3.72
2023-04-16T12:01:47.780Z,3.65
2023-04-16T12:04:23.101Z,3.30
2023-04-16T12:07:15.777Z,3.50
2023-04-16T12:09:43.621Z,3.15
2023-04-16T12:12:36.824Z,3.22
2023-04-16T12:15:04.507Z,3.40
2023-04-16T12:17:33.693Z,3.78
2023-04-16T12:20:08.851Z,3.42
2023-04-16T12:22:37.518Z,3.83
2023-04-16T12:25:13.929Z,3.47
2023-04-16T12:27:48.564Z,3.45
2023-04-16T12:30:23.941Z,3.33
2023-04-16T12:32:52.340Z,3.90
2023-04-16T12:35:38.935Z,4.00
2023-04-16T12:38:15.018Z,3.10
2023-04-16T12:40:48.972Z,3.67
2023-04-16T12:43:16.257Z,3.35
2023-04-16T12:45:43.465Z,3.55
2023-04-16T12:48:17.894Z,3.70
2023-04-16T12:50:45.090Z,3.28
2023-04-16T12:53:18.950Z,3.17
2023-04-16T12:55:46.082Z,3.60
2023-04-16T12:58:19.983Z,3.63
2023-04-16T13:00:47.099Z,3.30
2023-04-16T13:03:14.398Z,3.33
2023-04-16T13:05:47.915Z,3.80
2023-04-16T13:08:15.086Z,3.58
2023-04-16T13:10:49.009Z,3.47
2023-04-16T13:13:19.166Z,3.38
2023-04-16T13:15:46.364Z,3.22
2023-04-16T13:18:19.933Z,3.08
2023-04-16T13:20:47.117Z,3.08
2023-04-16T13:23:24.924Z,3.15
2023-04-16T13:25:52.066Z,3.20
2023-04-16T13:28:19.203Z,3.33
2023-04-16T13:31:08.115Z,2.95
2023-04-16T13:33:42.012Z,3.33
2023-04-16T13:36:16.049Z,3.20
2023-04-16T13:38:49.717Z,3.10
2023-04-16T13:41:23.873Z,3.30
2023-04-16T13:43:57.806Z,3.63
2023-04-16T13:46:31.884Z,3.20
2023-04-16T13:48:59.234Z,3.25
2023-04-16T13:51:33.883Z,2.78
2023-04-16T13:54:01.053Z,3.20
2023-04-16T13:56:28.317Z,2.90
2023-04-16T13:59:01.941Z,2.90
2023-04-16T14:01:29.218Z,2.75
2023-04-16T14:04:03.271Z,3.22
2023-04-16T14:06:30.545Z,3.00
2023-04-16T14:08:57.701Z,2.70
2023-04-16T14:11:30.873Z,2.80
2023-04-16T14:13:58.317Z,2.50
2023-04-16T14:16:32.013Z,3.00
2023-04-16T14:18:59.617Z,2.70
2023-04-16T14:24:00.983Z,2.78
2023-04-16T14:26:28.304Z,2.60
2023-04-16T14:29:02.053Z,2.60
2023-04-16T14:31:29.596Z,2.60
2023-04-16T14:33:56.757Z,2.38
2023-04-16T14:36:30.893Z,2.83
2023-04-16T14:39:05.031Z,2.58
2023-04-16T14:41:39.080Z,3.08
2023-04-16T14:44:06.833Z,2.58
2023-04-16T14:46:33.991Z,2.25
2023-04-16T14:49:10.075Z,3.00
2023-04-16T14:51:38.746Z,2.65
2023-04-16T14:54:13.059Z,2.55
2023-04-16T14:56:40.798Z,2.53
2023-04-16T14:59:08.189Z,3.00
2023-04-16T15:01:43.170Z,2.65
2023-04-16T15:04:10.802Z,2.53
2023-04-16T15:09:13.995Z,2.60
2023-04-16T15:11:41.139Z,2.42
2023-04-16T15:14:14.934Z,2.88
2023-04-16T15:16:42.253Z,3.03
2023-04-16T15:19:15.938Z,2.70
2023-04-16T15:21:43.035Z,2.75
2023-04-16T15:24:10.973Z,2.55
2023-04-16T15:26:44.937Z,3.17
2023-04-16T15:29:12.166Z,3.50
2023-04-16T15:31:46.118Z,2.72
2023-04-16T15:34:13.358Z,2.60
2023-04-16T15:36:40.612Z,2.60
2023-04-16T15:39:20.104Z,2.42
2023-04-16T15:41:59.921Z,2.80
2023-04-16T15:44:35.175Z,2.55
2023-04-16T15:47:02.314Z,2.85
2023-04-16T15:49:29.462Z,2.67
2023-04-16T15:52:03.061Z,2.80
2023-04-16T15:54:31.806Z,2.50
2023-04-16T15:57:06.144Z,2.35
2023-04-16T15:59:33.517Z,2.45
2023-04-16T16:02:01.234Z,2.58
2023-04-16T16:04:35.061Z,2.60
2023-04-16T16:07:03.816Z,2.50
2023-04-16T16:09:38.086Z,2.30
2023-04-16T16:12:05.348Z,2.67
2023-04-16T16:14:33.818Z,2.28
2023-04-16T16:17:08.070Z,2.50
2023-04-16T16:19:35.276Z,2.60
2023-04-16T16:22:02.473Z,2.97
2023-04-16T16:24:36.015Z,2.63
2023-04-16T16:27:03.269Z,2.40
2023-04-16T16:29:37.049Z,2.40
2023-04-16T16:32:04.595Z,2.60
2023-04-16T16:34:31.805Z,2.90
2023-04-16T16:37:05.925Z,2.63
2023-04-16T16:39:39.999Z,2.20
2023-04-16T16:42:15.970Z,2.47
2023-04-16T16:44:43.118Z,2.63
2023-04-16T16:47:16.958Z,2.30
2023-04-16T16:49:44.458Z,2.50
2023-04-16T16:52:11.687Z,2.60
2023-04-16T16:54:45.047Z,2.60
2023-04-16T16:57:12.827Z,2.70
2023-04-16T16:59:40.073Z,2.78
2023-04-16T17:02:16.334Z,2.88
2023-04-16T17:04:44.213Z,2.40
2023-04-16T17:07:11.856Z,2.78
2023-04-16T17:12:13.305Z,2.83
2023-04-16T17:14:47.082Z,2.30
2023-04-16T17:17:14.290Z,2.22
2023-04-16T17:19:41.412Z,2.88
2023-04-16T17:22:14.960Z,3.10
2023-04-16T17:24:42.165Z,2.80
2023-04-16T17:27:16.180Z,2.95
2023-04-16T17:29:43.351Z,2.97
2023-04-16T17:32:10.910Z,2.33
2023-04-16T17:37:31.948Z,2.63
2023-04-16T17:40:05.970Z,2.72
2023-04-16T17:42:33.122Z,2.97
2023-04-16T17:45:00.462Z,3.00
2023-04-16T17:47:33.984Z,2.88
2023-04-16T17:50:01.704Z,2.63
2023-04-16T17:52:36.172Z,2.80
2023-04-16T17:55:03.955Z,2.70
2023-04-16T17:57:32.170Z,2.75
2023-04-16T18:00:12.971Z,2.70
2023-04-16T18:02:49.243Z,2.72
2023-04-16T18:05:16.580Z,2.45
2023-04-16T18:07:44.035Z,2.75
2023-04-16T18:10:17.985Z,2.72
2023-04-16T18:12:45.221Z,2.83
2023-04-16T18:15:19.176Z,2.65
2023-04-16T18:17:46.818Z,2.70
2023-04-16T18:20:25.973Z,3.08
2023-04-16T18:22:59.904Z,2.83
2023-04-16T18:25:36.460Z,3.42
2023-04-16T18:28:05.109Z,2.67
2023-04-16T18:30:32.737Z,2.83
2023-04-16T18:35:53.540Z,2.90
2023-04-16T18:41:01.959Z,2.95
2023-04-16T18:43:29.065Z,3.08
2023-04-16T18:46:03.093Z,2.83
2023-04-16T18:48:30.458Z,3.22
2023-04-16T18:51:05.018Z,3.00
2023-04-16T18:53:32.288Z,3.30
2023-04-16T18:55:59.652Z,3.58
2023-04-16T18:58:34.027Z,4.38
2023-04-16T19:01:02.176Z,3.10
2023-04-16T19:03:30.371Z,3.55
2023-04-16T19:06:04.086Z,3.72
2023-04-16T19:08:31.229Z,3.50
2023-04-16T19:11:05.196Z,3.38
2023-04-16T19:13:32.377Z,3.33
2023-04-16T19:16:00.018Z,3.47
2023-04-16T19:21:01.679Z,3.33
2023-04-16T19:23:36.128Z,3.50
2023-04-16T19:26:03.846Z,3.05
2023-04-16T19:28:45.135Z,3.60
2023-04-16T19:31:12.325Z,3.70
2023-04-16T19:33:39.478Z,3.67
2023-04-16T19:36:19.976Z,3.08
2023-04-16T19:38:54.048Z,3.38
2023-04-16T19:41:28.147Z,3.28
2023-04-16T19:43:55.710Z,3.80
2023-04-16T19:48:56.117Z,3.20
2023-04-16T19:51:23.563Z,3.35
2023-04-16T19:53:50.790Z,3.60
2023-04-16T19:56:24.996Z,3.78
2023-04-16T19:58:52.221Z,3.40
2023-04-16T20:01:26.095Z,3.92
2023-04-16T20:03:54.584Z,3.72
2023-04-16T20:06:21.940Z,3.45
2023-04-16T20:08:55.977Z,3.60
2023-04-16T20:11:23.148Z,3.58
2023-04-16T20:13:57.183Z,3.63
2023-04-16T20:16:24.825Z,4.03
2023-04-16T20:18:54.307Z,4.15
2023-04-16T20:21:28.074Z,3.72
2023-04-16T20:23:55.525Z,4.47
2023-04-16T20:26:31.108Z,4.25
2023-04-16T20:28:58.270Z,3.63
2023-04-16T20:31:25.394Z,3.45
2023-04-16T20:33:59.061Z,3.47
2023-04-16T20:36:26.285Z,4.30
2023-04-16T20:39:09.314Z,4.13
2023-04-16T20:41:44.361Z,3.53
2023-04-16T20:44:25.006Z,3.67
2023-04-16T20:47:03.126Z,3.60
2023-04-16T20:49:37.007Z,3.92
2023-04-16T20:52:11.009Z,4.45
2023-04-16T20:54:38.158Z,4.10
2023-04-16T20:57:05.556Z,3.95
2023-04-16T20:59:38.950Z,4.43
2023-04-16T21:02:06.461Z,3.90
2023-04-16T21:07:10.068Z,3.92
2023-04-16T21:09:37.240Z,4.63
2023-04-16T21:12:11.074Z,5.22
2023-04-16T21:14:38.469Z,4.35
2023-04-16T21:17:05.648Z,4.57
2023-04-16T21:19:38.945Z,4.18
2023-04-16T21:22:06.122Z,4.82
2023-04-16T21:24:40.076Z,4.53
2023-04-16T21:27:07.408Z,5.05
2023-04-16T21:29:34.682Z,4.15
2023-04-16T21:32:07.938Z,4.20
2023-04-16T21:34:35.207Z,4.25
2023-04-16T21:37:11.835Z,4.85
2023-04-16T21:39:46.305Z,4.50
2023-04-16T21:42:23.114Z,4.32
2023-04-16T21:44:50.489Z,4.30
2023-04-16T21:47:17.579Z,4.63
2023-04-16T21:49:50.963Z,4.93
2023-04-16T21:52:18.512Z,4.22
2023-04-16T21:57:19.303Z,4.30
2023-04-16T21:59:46.412Z,4.45
2023-04-16T22:02:20.166Z,4.22
2023-04-16T22:04:48.770Z,4.50
2023-04-16T22:07:22.990Z,4.20
2023-04-16T22:09:50.953Z,4.43
2023-04-16T22:12:25.275Z,4.95
2023-04-16T22:15:02.337Z,4.60
2023-04-16T22:17:36.991Z,5.03
2023-04-16T22:20:18.034Z,4.75
2023-04-16T22:22:52.090Z,5.05
2023-04-16T22:25:19.314Z,4.63
2023-04-16T22:27:46.414Z,4.88
2023-04-16T22:30:19.958Z,5.00
2023-04-16T22:32:47.408Z,4.68
2023-04-16T22:35:21.090Z,5.03
2023-04-16T22:38:08.081Z,4.30
2023-04-16T22:40:41.986Z,4.90
2023-04-16T22:43:09.365Z,4.30
2023-04-16T22:45:37.458Z,4.57
2023-04-16T22:48:11.165Z,4.50
2023-04-16T22:50:38.348Z,4.57
2023-04-16T22:53:12.016Z,4.93
2023-04-16T22:55:39.258Z,4.25
2023-04-16T22:58:06.349Z,5.03
2023-04-16T23:00:39.977Z,4.63
2023-04-16T23:03:07.595Z,4.35
2023-04-16T23:05:40.996Z,4.40
2023-04-16T23:08:08.451Z,4.70
2023-04-16T23:10:35.805Z,4.72
2023-04-16T23:13:10.107Z,4.93
2023-04-16T23:15:37.501Z,4.55
2023-04-16T23:18:11.097Z,5.40
2023-04-16T23:20:38.283Z,4.68
2023-04-16T23:23:05.379Z,5.22
2023-04-16T23:25:39.127Z,4.88
2023-04-16T23:28:06.350Z,4.25
2023-04-16T23:30:40.060Z,4.85
2023-04-16T23:33:07.324Z,5.03
2023-04-16T23:35:34.454Z,4.78
2023-04-16T23:38:08.166Z,5.10
2023-04-16T23:40:41.957Z,5.50
2023-04-16T23:43:16.271Z,5.07
2023-04-16T23:45:43.489Z,5.13
2023-04-16T23:48:10.620Z,5.75
2023-04-16T23:50:44.037Z,4.20
2023-04-16T23:53:11.260Z,5.25
2023-04-16T23:55:45.065Z,4.63
2023-04-16T23:58:12.282Z,5.05
